Terminal Aerodrome Forecast
Issued by NWS

Home | Current Version | Previous Version | Text Only | Print | Product List | Glossary On
Versions: 1 2 3 4 5 6 7 8 9 10 11 12 13 14 15 16 17 18 19 20 21 22 23 24 25 26
950
FTUS43 KLSX 271730
TAFSUS
TAF
KSUS 271730Z 2718/2818 VRB05KT 5SM -SHRA VCTS SCT005 OVC008CB
      TEMPO 2718/2720 2SM -RA BR OVC005
     FM272200 35007KT P6SM VCSH SCT008 OVC020
     FM280100 35007KT P6SM OVC040
     FM280600 33005KT P6SM OVC015
     FM280900 36005KT P6SM BKN008
     FM281700 03005KT P6SM BKN015=

USA.gov is the U.S. government's official web portal to all federal, state and local government web resources and services.